createdAt,value
2018-11-22T12:30:50.963Z,36.05
2018-11-22T12:45:51.384Z,34.58
2018-11-22T13:15:51.440Z,37.33
2018-11-22T13:30:52.609Z,34.18
2018-11-22T13:45:50.576Z,29.37
2018-11-22T14:00:50.280Z,29.48
2018-11-22T14:15:51.333Z,25.35
2018-11-22T14:30:50.816Z,28.92
2018-11-22T14:45:50.778Z,32.25
2018-11-22T15:00:50.206Z,28.98
2018-11-22T15:15:50.638Z,32.03
2018-11-22T15:30:51.095Z,30.08
2018-11-22T15:45:50.977Z,27.87
2018-11-22T16:00:51.927Z,37.30
2018-11-22T16:15:52.756Z,32.70
2018-11-22T16:30:52.804Z,39.05
2018-11-22T16:45:52.309Z,33.70
2018-11-22T17:00:52.107Z,33.08
2018-11-22T17:15:52.576Z,42.23
2018-11-22T17:30:53.724Z,40.35
2018-11-22T17:45:52.797Z,36.23
2018-11-22T18:00:57.441Z,43.42
2018-11-22T18:15:58.921Z,45.30
2018-11-22T18:30:53.726Z,52.98
2018-11-22T18:45:54.835Z,56.83
2018-11-22T19:00:51.444Z,68.52
2018-11-22T19:15:53.600Z,68.12
2018-11-22T19:30:50.837Z,60.03
2018-11-22T19:45:53.636Z,58.90
2018-11-22T20:00:51.322Z,64.07
2018-11-22T20:15:51.155Z,46.80
2018-11-22T20:30:54.330Z,54.65
2018-11-22T20:45:53.755Z,48.00
2018-11-22T21:00:51.506Z,55.15
2018-11-22T21:30:54.119Z,46.95
2018-11-22T21:45:54.797Z,47.40
2018-11-22T22:00:57.673Z,50.50
2018-11-22T22:15:52.016Z,70.75
2018-11-22T22:30:51.476Z,66.15
2018-11-22T22:45:51.663Z,51.42
2018-11-22T23:00:51.981Z,56.77
2018-11-22T23:15:52.839Z,48.85
2018-11-22T23:30:50.542Z,48.30
2018-11-22T23:45:52.538Z,45.83
